• Join FlightAware (Why Join?)
  • Login
  • US Flag 
05:25AM EDT


 

Airport Tracker/Info


-or-


 

Live Flight TrackerFlight Track Log ✈ SWA1464 ✈ 21-Apr-2013 ✈ KMDW - KOMA

Flight Track Log - Related Links

Times and Time Zones

All times are in EDT time to prevent confusion due to time zone crossing. See the SWA1464 flight status page for this flight to view local times or setup timezone preferences in your user account.

Time Position Orientation Groundspeed Altitude Reporting Facility
EDT Latitude Longitude Course Direction KTS MPH feet Rate Location/Type
11:48PM 41.7500 -87.6833 121° Southeast 200 230 3,800  Level Chicago TRACON
11:49PM 41.7167 -87.7333 228° Southwest 233 268 7,500 2,880 Climbing Chicago TRACON
11:51PM 41.7694 -87.9606 287° West 310 357 14,200 2,820 Climbing Chicago Center
11:52PM 41.7700 -88.0900 270° West 344 396 17,500 2,940 Climbing Chicago Center
11:53PM 41.7692 -88.2253 270° West 363 418 20,200 2,580 Climbing Chicago Center
11:54PM 41.7667 -88.3661 269° West 377 434 22,800 1,380 Climbing Chicago Center
11:55PM 41.7625 -88.5122 268° West 392 451 23,000 1,020 Climbing Chicago Center
11:56PM 41.7594 -88.6594 268° West 399 459 24,900 2,040 Climbing Chicago Center
11:57PM 41.7558 -88.8081 268° West 403 464 27,200 2,100 Climbing Chicago Center
11:58PM 41.7525 -88.9611 268° West 412 474 29,200 2,160 Climbing Chicago Center
11:59PM 41.7492 -89.1158 268° West 419 482 31,700 2,220 Climbing Chicago Center
12:00AM 41.7453 -89.2675 268° West 413 475 33,700 1,800 Climbing Chicago Center
12:01AM 41.7414 -89.4172 268° West 406 467 35,400 1,140 Climbing Chicago Center
12:02AM 41.7372 -89.5847 268° West 409 471 36,000 240 Climbing Chicago Center
12:03AM 41.7325 -89.7372 268° West 411 473 36,000  Level Chicago Center
12:04AM 41.7275 -89.8903 268° West 414 476 36,000  Level Chicago Center
12:05AM 41.7236 -90.0419 268° West 411 473 36,000  Level Chicago Center
12:06AM 41.7181 -90.1956 267° West 413 475 36,000  Level Chicago Center
12:07AM 41.7111 -90.3536 267° West 425 489 36,000  Level Chicago Center
12:08AM 41.7056 -90.5081 267° West 419 482 36,000  Level Chicago Center
12:09AM 41.6997 -90.6522 267° West 414 476 36,000  Level Chicago Center
12:10AM 41.6944 -90.8050 267° West 413 475 36,000  Level Chicago Center
12:11AM 41.6872 -90.9878 267° West 411 473 36,000  Level Chicago Center
12:12AM 41.6800 -91.1369 266° West 407 468 36,000  Level Chicago Center
12:13AM 41.6747 -91.2847 267° West 401 461 36,000  Level Chicago Center
12:14AM 41.6678 -91.4336 266° West 403 464 36,000  Level Chicago Center
12:15AM 41.6600 -91.5822 266° West 402 463 36,000  Level Chicago Center
12:16AM 41.6542 -91.7286 267° West 399 459 36,000  Level Chicago Center
12:17AM 41.6464 -91.8764 266° West 400 460 36,000  Level Chicago Center
12:18AM 41.6392 -92.0228 266° West 398 458 36,000  Level Chicago Center
12:19AM 41.6308 -92.1711 266° West 401 461 36,000  Level Chicago Center
12:20AM 41.6231 -92.3175 266° West 398 458 36,000  Level Chicago Center
12:21AM 41.6147 -92.4639 266° West 397 457 36,000  Level Chicago Center
12:22AM 41.6072 -92.6092 266° West 396 456 36,000  Level Chicago Center
12:23AM 41.6019 -92.6939 265° West 395 455 36,000  Level Minneapolis Center
12:24AM 41.5936 -92.8411 266° West 398 458 36,000  Level Minneapolis Center
12:25AM 41.5858 -92.9892 266° West 402 463 36,000  Level Minneapolis Center
12:26AM 41.5769 -93.1392 266° West 406 467 36,000  Level Minneapolis Center
12:27AM 41.5672 -93.2906 265° West 410 472 36,000  Level Minneapolis Center
12:28AM 41.5569 -93.4422 265° West 414 476 36,000  Level Minneapolis Center
12:29AM 41.5489 -93.5900 266° West 406 467 36,000  Level Minneapolis Center
12:30AM 41.5394 -93.7372 265° West 403 464 36,000 -1,020 Level Minneapolis Center
12:31AM 41.5297 -93.8858 265° West 404 465 34,000 -2,400 Descending Minneapolis Center
12:32AM 41.5192 -94.0314 265° West 400 460 31,300 -2,820 Descending Minneapolis Center
12:33AM 41.5078 -94.1783 264° West 401 461 28,400 -3,000 Descending Minneapolis Center
12:34AM 41.5169 -94.3386 274° West 375 432 25,300 -2,580 Descending Minneapolis Center
12:35AM 41.5253 -94.4781 275° West 376 433 23,200 -2,100 Descending Minneapolis Center
12:36AM 41.5375 -94.6128 277° West 368 423 21,100 -2,100 Descending Minneapolis Center
12:37AM 41.5456 -94.7433 275° West 356 410 19,000 -1,920 Descending Minneapolis Center
12:38AM 41.5661 -94.8706 282° West 345 397 17,300 -1,740 Descending Minneapolis Center
12:39AM 41.5811 -94.9897 280° West 335 386 15,600 -1,800 Descending Minneapolis Center
12:40AM 41.5819 -95.1058 271° West 324 373 13,800 -1,860 Descending Minneapolis Center
12:41AM 41.5531 -95.2153 251° West 319 367 11,900 -1,740 Descending Minneapolis Center
12:42AM 41.5269 -95.3244 252° West 313 360 10,400 -1,440 Descending Minneapolis Center
12:43AM 41.5017 -95.4256 252° West 303 349 9,100 -1,560 Descending Minneapolis Center
12:44AM 41.4797 -95.5208 253° West 287 330 7,300 -1,560 Descending Minneapolis Center
12:45AM 41.4581 -95.6119 252° West 273 314 6,000 -1,440 Descending Minneapolis Center
12:46AM 41.4342 -95.7200 254° West 257 296 4,400 -1,440 Descending Minneapolis Center
12:47AM 41.4128 -95.7928 249° West 260 299 3,100 -1,080 Descending Minneapolis Center
12:48AM 41.3914 -95.8789 252° West 254 292 2,400 -360 Descending Minneapolis Center
12:49AM 41.3703 -95.9525 249° West 165 190 2,400 -360 Level Minneapolis Center
12:50AM 41.3378 -95.9369 160° South 119 137 1,700 -660 Descending Minneapolis Center
12:51AM 41.3064 -95.8997 138° Southeast 146 168 1,100 -600 Descending Minneapolis Center
12:53AM 41.3032 -95.8941 127° Southeast  Level Estimated